VDPPVDSR

Guest
Details From VDPP - Phnom Penh Intl
To VDSR - Siem Reap
Flight Number -
Tags generated
Created
Modified
Stats Distance 128 nm / 237 km
Max Altitude 6,000 ft / 1,829 m
Waypoints 4
Social Downloads 7
Likes 0
Share VATSIM

Download

Looking for another format? Having issues loading an existing format? Contact us
Advertisement - Login to hide

Notes

Basic altitude profile: - Ascent Rate: 2500ft/min - Ascent Speed: 250kts - Cruise Altitude: 35000ft - Cruise Speed: 420kts - Descent Rate: 1500ft/min - Descent Speed: 250kts Options: - Use NATs: yes - Use PACOTS: yes - Use low airways: yes - Use high airways: yes

Route

VDPP PNH W1 SRE VDSR

ID Type Via Altitude Latitude Longitude Leg Dist Tot Dist Heading (true) Name
O VDPP APT - 0 ft / 0 m 11.54654˚ 104.84414˚ - 0 nm - Phnom Penh Intl
PNH VOR - 0 ft / 0 m 11.54667˚ 104.84167˚ 0 nm 0 nm 273° / 273° PHNOM PENH VOR-DME
SRE VOR W1 (AWY-LO) 6,000 ft / 1,829 m 13.41500˚ 103.82167˚ 127 nm 127 nm 332° / 332° SIEM REAP VOR-DME
O VDSR APT - 0 ft / 0 m 13.41067˚ 103.81283˚ 0 nm 127 nm 243° / 243° Siem Reap

Altitude Profile

Advertisement - Login to hide

VDPP

Details ICAO VDPP (PNH)
Name Phnom Penh Intl
Region Cambodia
Timezone Asia/Phnom_Penh (UTC+7.0)
Stats Elevation 40 ft / 12 m (AMSL)
Location 11.546542° 104.844142°
Runways 1
Magnetic Variation 0.493° W

METAR

VDPP 121430Z 20004KT 9999 FEW017 SCT040 28/24 Q1011

Decode

TAF

TAF VDPP 121100Z 1212/1306 25005KT 9999 SCT017 SCT040= TAF VDSR 121100Z 1212/1306 34007KT 9999 SCT017 SCT040

Decode

Departure Runways

ID Width Length Bearing (true) Bearing (mag) Surface Threshold Offset Overrun Length
05 144 ft / 44 m 9,815 ft / 2,992 m 45.61° 46.10° Asphalt 400 ft / 122 m 0 ft / 0 m
23 144 ft / 44 m 9,815 ft / 2,992 m 225.61° 226.10° Asphalt 492 ft / 150 m 0 ft / 0 m

VDSR

Details ICAO VDSR (REP)
Name Siem Reap
Region Cambodia
Timezone Asia/Phnom_Penh (UTC+7.0)
Stats Elevation 60 ft / 18 m (AMSL)
Location 13.410667° 103.812832°
Runways 1
Magnetic Variation 0.618° W

METAR

VDSR 121430Z 00000KT 9999 SCT017 26/23 Q1010

Decode

TAF

Not found

Destination Runways

ID Width Length Bearing (true) Bearing (mag) Surface Threshold Offset Overrun Length
05 148 ft / 45 m 8,384 ft / 2,555 m 47.81° 48.43° Concrete 450 ft / 137 m 0 ft / 0 m
23 148 ft / 45 m 8,384 ft / 2,555 m 227.82° 228.44° Concrete 450 ft / 137 m 0 ft / 0 m

Popular Alternatives